Time;durP1;ratioP1;P1;durP2;ratioP2;P2;SDS_P1;SDS_P2;PMS_P1;PMS_P2;Temp;Humidity;BMP_temperature;BMP_pressure;BME280_temperature;BME280_humidity;BME280_pressure;Samples;Min_cycle;Max_cycle;Signal;HPM_P1;HPM_P2
2021/04/24 00:01:01;;;;;;;2.00;1.33;;;7.80;91.90;;;;;;5058616;28;20203;-61
2021/04/24 00:03:27;;;;;;;1.13;1.13;;;7.80;92.00;;;;;;5065660;28;20463;-60
2021/04/24 00:05:56;;;;;;;0.80;0.80;;;7.80;91.70;;;;;;5063702;28;20211;-61
2021/04/24 00:08:23;;;;;;;0.70;0.70;;;8.10;91.70;;;;;;5061107;28;20502;-60
2021/04/24 00:10:50;;;;;;;0.80;0.80;;;7.90;90.70;;;;;;5064277;28;20226;-61
2021/04/24 00:13:17;;;;;;;0.80;0.80;;;7.80;90.70;;;;;;5068245;28;20209;-63
2021/04/24 00:15:44;;;;;;;1.00;1.00;;;7.70;90.20;;;;;;5064574;28;20277;-59
2021/04/24 00:18:11;;;;;;;1.40;1.40;;;7.70;90.10;;;;;;5070287;28;20269;-62
2021/04/24 00:20:39;;;;;;;1.35;0.90;;;7.60;90.00;;;;;;5062523;28;20210;-61
2021/04/24 00:23:06;;;;;;;1.00;1.00;;;7.60;90.00;;;;;;5068126;28;20208;-60
2021/04/24 00:25:33;;;;;;;1.20;1.20;;;7.60;90.00;;;;;;5064510;28;20230;-61
2021/04/24 00:28:00;;;;;;;1.00;1.00;;;7.60;89.60;;;;;;5069032;28;20389;-60
2021/04/24 00:30:27;;;;;;;1.30;1.30;;;7.60;90.10;;;;;;5063924;28;20207;-61
2021/04/24 00:32:54;;;;;;;1.50;1.38;;;7.50;89.30;;;;;;5067750;28;20222;-62
2021/04/24 00:35:21;;;;;;;0.90;0.90;;;7.50;89.50;;;;;;5068888;28;20199;-61
2021/04/24 00:37:49;;;;;;;1.00;1.00;;;7.40;88.60;;;;;;5064184;28;20229;-62
2021/04/24 00:40:18;;;;;;;1.38;1.35;;;7.40;89.90;;;;;;5064598;28;20229;-62
2021/04/24 00:42:48;;;;;;;1.30;1.30;;;7.30;88.60;;;;;;5064464;28;20238;-60
2021/04/24 00:45:18;;;;;;;0.90;0.90;;;7.40;87.70;;;;;;5064537;28;20219;-61
2021/04/24 00:47:45;;;;;;;1.50;1.45;;;7.40;87.50;;;;;;5061043;28;20235;-61
2021/04/24 00:50:16;;;;;;;1.33;1.33;;;7.40;88.20;;;;;;5064616;28;20199;-61
2021/04/24 00:52:42;;;;;;;1.20;1.20;;;7.40;87.50;;;;;;5063171;28;20341;-59
2021/04/24 00:55:10;;;;;;;1.10;1.10;;;7.30;87.50;;;;;;5064386;28;20211;-62
2021/04/24 00:57:37;;;;;;;0.90;0.90;;;7.40;87.60;;;;;;5069192;28;20233;-60
2021/04/24 01:00:06;;;;;;;1.35;1.35;;;7.40;86.70;;;;;;5063891;28;20211;-61
2021/04/24 01:02:33;;;;;;;1.42;1.42;;;7.30;86.00;;;;;;5061706;28;20211;-60
2021/04/24 01:04:59;;;;;;;1.10;1.10;;;7.40;87.90;;;;;;5062774;28;20219;-61
2021/04/24 01:07:27;;;;;;;1.15;1.15;;;8.00;87.30;;;;;;5068422;28;20253;-61
2021/04/24 01:09:54;;;;;;;1.30;1.30;;;7.90;87.20;;;;;;5061854;28;20254;-59
2021/04/24 01:12:20;;;;;;;1.85;1.55;;;8.10;86.30;;;;;;5070514;28;20203;-61
2021/04/24 01:14:47;;;;;;;1.67;1.67;;;8.00;85.10;;;;;;5061078;28;20199;-61
2021/04/24 01:17:13;;;;;;;4.35;3.28;;;7.80;84.40;;;;;;5062900;28;20231;-60
2021/04/24 01:19:40;;;;;;;1.63;1.63;;;7.80;85.20;;;;;;5061564;28;20207;-62
2021/04/24 01:22:09;;;;;;;0.90;0.90;;;8.00;85.60;;;;;;5065301;28;20211;-61
2021/04/24 01:24:37;;;;;;;3.70;2.22;;;8.00;86.20;;;;;;5064798;28;20282;-61
2021/04/24 01:27:05;;;;;;;1.00;1.00;;;8.00;85.30;;;;;;5064003;28;20211;-64
2021/04/24 01:29:32;;;;;;;1.42;1.42;;;7.80;85.20;;;;;;5061920;28;20214;-60
2021/04/24 01:32:01;;;;;;;1.00;1.00;;;7.80;87.10;;;;;;5063806;28;20210;-61
2021/04/24 01:34:29;;;;;;;2.10;2.00;;;7.80;87.00;;;;;;5066612;28;20207;-62
2021/04/24 01:36:57;;;;;;;1.33;1.33;;;7.90;87.00;;;;;;5072827;28;20258;-61
2021/04/24 01:39:25;;;;;;;1.67;1.58;;;7.80;87.30;;;;;;5060024;28;20239;-61
2021/04/24 01:41:52;;;;;;;2.45;2.20;;;7.80;87.90;;;;;;5064406;28;20218;-60
2021/04/24 01:44:19;;;;;;;0.90;0.90;;;7.80;88.30;;;;;;5066953;28;20227;-60
2021/04/24 01:46:46;;;;;;;5.68;2.67;;;7.80;89.50;;;;;;5066280;28;20397;-60
2021/04/24 01:49:13;;;;;;;1.42;1.42;;;7.70;90.20;;;;;;5061522;28;20204;-60
2021/04/24 01:51:40;;;;;;;1.88;1.75;;;7.70;91.20;;;;;;5065199;28;20250;-60
2021/04/24 01:54:08;;;;;;;0.90;0.90;;;7.70;92.20;;;;;;5065195;28;20210;-62
2021/04/24 01:56:53;;;;;;;0.80;0.80;;;7.60;92.90;;;;;;5061565;28;20230;-60
2021/04/24 01:59:22;;;;;;;1.23;1.23;;;7.30;94.40;;;;;;5066866;28;20206;-61
2021/04/24 02:01:51;;;;;;;1.08;1.08;;;7.30;94.80;;;;;;5057681;28;20219;-61
2021/04/24 02:04:19;;;;;;;1.40;1.02;;;7.40;95.20;;;;;;5064432;28;21152;-60
2021/04/24 02:06:47;;;;;;;1.30;1.20;;;7.30;95.80;;;;;;5068258;28;20497;-60
2021/04/24 02:09:15;;;;;;;1.45;1.45;;;7.10;96.60;;;;;;5067745;28;20232;-60
2021/04/24 02:12:14;;;;;;;1.27;1.20;;;7.40;96.80;;;;;;5060169;28;20239;-60
2021/04/24 02:14:49;;;;;;;2.08;1.85;;;7.30;97.10;;;;;;5035051;28;20772;-60
2021/04/24 02:17:24;;;;;;;0.95;0.95;;;7.00;97.60;;;;;;5067943;28;20238;-60
2021/04/24 02:19:52;;;;;;;1.98;1.88;;;6.90;98.10;;;;;;5062850;28;20203;-61
2021/04/24 02:22:21;;;;;;;1.55;1.45;;;7.00;98.30;;;;;;5062644;28;20270;-60
2021/04/24 02:24:52;;;;;;;0.47;0.47;;;7.00;98.40;;;;;;5062208;28;20234;-60
2021/04/24 02:27:19;;;;;;;1.67;1.58;;;7.10;98.30;;;;;;5061625;28;20206;-60
2021/04/24 02:29:46;;;;;;;2.28;1.20;;;7.10;98.30;;;;;;5059974;28;20215;-60
2021/04/24 02:32:15;;;;;;;1.83;1.48;;;7.10;98.60;;;;;;5064591;28;20449;-61
2021/04/24 02:34:44;;;;;;;3.15;1.60;;;7.00;98.50;;;;;;5066052;28;20207;-60
2021/04/24 02:37:12;;;;;;;0.75;0.60;;;7.10;98.80;;;;;;5065470;28;20230;-60
2021/04/24 02:39:42;;;;;;;1.25;1.23;;;7.10;98.70;;;;;;5057750;28;20852;-61
2021/04/24 02:42:12;;;;;;;1.58;0.40;;;7.20;98.50;;;;;;5067346;28;20214;-61
2021/04/24 02:44:39;;;;;;;0.70;0.70;;;7.10;98.60;;;;;;5068794;28;20207;-61
2021/04/24 02:47:06;;;;;;;0.75;0.68;;;7.10;98.70;;;;;;5067988;28;20208;-60
2021/04/24 02:49:34;;;;;;;1.65;1.02;;;7.10;98.70;;;;;;5059239;28;20207;-63
2021/04/24 02:52:03;;;;;;;2.42;2.33;;;7.10;98.70;;;;;;5067284;28;20231;-60
2021/04/24 02:54:30;;;;;;;7.82;2.30;;;7.00;98.80;;;;;;5064463;28;20239;-60
2021/04/24 02:56:57;;;;;;;0.60;0.60;;;6.90;99.10;;;;;;5062320;28;20235;-60
2021/04/24 02:59:24;;;;;;;0.98;0.98;;;6.90;99.10;;;;;;5058707;28;20204;-60
2021/04/24 03:01:51;;;;;;;1.00;1.00;;;6.90;99.00;;;;;;5060492;28;20203;-61
2021/04/24 03:04:19;;;;;;;3.83;2.20;;;7.00;98.80;;;;;;5063230;28;20517;-60
2021/04/24 03:06:46;;;;;;;0.73;0.73;;;7.00;98.80;;;;;;5064223;28;20282;-60
2021/04/24 03:09:13;;;;;;;1.27;1.08;;;6.70;99.20;;;;;;5063650;28;20213;-62
2021/04/24 03:11:41;;;;;;;1.20;1.13;;;6.60;99.20;;;;;;5056703;28;20203;-62
2021/04/24 03:14:08;;;;;;;0.63;0.63;;;6.60;99.50;;;;;;5063517;28;20212;-61
2021/04/24 03:16:35;;;;;;;1.02;1.02;;;6.50;99.60;;;;;;5067967;28;20571;-60
2021/04/24 03:19:04;;;;;;;0.90;0.90;;;6.60;99.60;;;;;;5070149;28;20537;-60
2021/04/24 03:21:31;;;;;;;1.40;1.30;;;6.30;99.60;;;;;;5063146;28;20203;-61
2021/04/24 03:23:58;;;;;;;1.00;0.98;;;6.20;99.90;;;;;;5064167;28;20210;-59
2021/04/24 03:26:25;;;;;;;1.05;1.05;;;6.30;99.80;;;;;;5073056;28;20244;-60
2021/04/24 03:28:52;;;;;;;0.43;0.43;;;6.20;99.80;;;;;;5066062;28;20556;-60
2021/04/24 03:31:19;;;;;;;2.47;1.88;;;6.10;99.90;;;;;;5066408;28;20218;-60
2021/04/24 03:33:46;;;;;;;1.67;0.93;;;6.10;99.90;;;;;;5072273;28;20524;-62
2021/04/24 03:36:14;;;;;;;1.25;0.75;;;6.20;99.90;;;;;;5067023;28;20249;-60
2021/04/24 03:38:41;;;;;;;0.93;0.93;;;6.20;99.70;;;;;;5071265;28;20205;-60
2021/04/24 03:41:09;;;;;;;0.95;0.90;;;6.40;99.50;;;;;;5062895;28;20428;-60
2021/04/24 03:43:36;;;;;;;0.50;0.50;;;6.50;99.30;;;;;;5069232;28;20612;-61
2021/04/24 03:46:04;;;;;;;0.82;0.82;;;6.50;99.20;;;;;;5065501;28;20443;-61
2021/04/24 03:48:31;;;;;;;0.75;0.55;;;6.40;99.10;;;;;;5064323;28;20215;-61
2021/04/24 03:50:58;;;;;;;0.75;0.75;;;6.50;99.60;;;;;;5068049;28;20246;-61
2021/04/24 03:53:25;;;;;;;1.08;1.02;;;6.60;99.30;;;;;;5082295;28;20697;-60
2021/04/24 03:55:51;;;;;;;0.40;0.40;;;6.60;98.80;;;;;;5070240;28;20229;-61
2021/04/24 03:58:18;;;;;;;0.40;0.40;;;6.70;98.80;;;;;;5071832;28;20206;-60
2021/04/24 04:00:45;;;;;;;0.52;0.52;;;6.40;98.50;;;;;;5061625;28;20551;-59
2021/04/24 04:03:12;;;;;;;0.60;0.60;;;6.80;98.50;;;;;;5064815;28;20215;-62
2021/04/24 04:05:44;;;;;;;2.22;2.13;;;6.90;98.50;;;;;;5069383;28;20219;-59
2021/04/24 04:08:13;;;;;;;2.15;1.05;;;6.80;98.40;;;;;;5066082;28;20297;-60
2021/04/24 04:10:42;;;;;;;0.90;0.90;;;6.80;98.40;;;;;;5066366;28;20225;-66
2021/04/24 04:13:10;;;;;;;1.90;1.70;;;6.90;98.30;;;;;;5064122;28;20222;-60
2021/04/24 04:15:36;;;;;;;0.40;0.40;;;7.10;98.00;;;;;;5070736;28;20211;-61
2021/04/24 04:18:34;;;;;;;2.40;1.10;;;7.20;97.90;;;;;;5070270;28;20572;-59
2021/04/24 04:21:02;;;;;;;0.55;0.55;;;7.30;97.50;;;;;;5069789;28;20207;-60
2021/04/24 04:23:29;;;;;;;0.50;0.50;;;7.20;97.50;;;;;;5067458;28;20206;-60
2021/04/24 04:25:57;;;;;;;1.15;1.15;;;7.30;97.40;;;;;;5064550;28;20214;-62
2021/04/24 04:28:25;;;;;;;2.80;1.02;;;7.60;97.20;;;;;;5069714;28;20209;-61
2021/04/24 04:30:54;;;;;;;0.60;0.60;;;7.70;96.90;;;;;;5067242;28;20221;-59
2021/04/24 04:33:21;;;;;;;2.45;1.15;;;7.70;96.90;;;;;;5065241;28;20203;-59
2021/04/24 04:35:48;;;;;;;1.15;0.95;;;7.70;96.70;;;;;;5064536;28;20218;-60
2021/04/24 04:38:15;;;;;;;0.70;0.70;;;7.80;96.70;;;;;;5056226;28;20203;-61
2021/04/24 04:40:43;;;;;;;1.98;1.77;;;7.90;96.60;;;;;;5066001;28;20401;-60
2021/04/24 04:43:10;;;;;;;0.73;0.73;;;7.80;96.50;;;;;;5065307;28;20233;-60
2021/04/24 04:45:37;;;;;;;1.35;1.35;;;7.90;96.30;;;;;;5069500;28;20207;-61
2021/04/24 04:48:04;;;;;;;1.33;1.13;;;8.00;96.10;;;;;;5061196;28;20218;-62
2021/04/24 04:50:35;;;;;;;4.88;2.40;;;8.00;96.00;;;;;;5068553;28;20207;-60
2021/04/24 04:53:01;;;;;;;1.92;1.83;;;8.00;96.00;;;;;;5069137;28;20242;-61
2021/04/24 04:55:28;;;;;;;2.47;1.58;;;8.00;96.00;;;;;;5071166;28;20212;-59
2021/04/24 04:57:56;;;;;;;1.48;1.10;;;8.20;95.80;;;;;;5069393;28;20235;-62
2021/04/24 05:00:24;;;;;;;1.48;1.35;;;8.40;95.20;;;;;;5063064;28;20215;-62
2021/04/24 05:02:51;;;;;;;1.30;1.20;;;8.80;94.90;;;;;;5062637;28;20213;-62
2021/04/24 05:05:18;;;;;;;0.95;0.85;;;9.00;93.90;;;;;;5069163;28;20215;-62
2021/04/24 05:07:49;;;;;;;1.30;1.20;;;9.40;93.20;;;;;;5066316;28;20221;-60
2021/04/24 05:10:23;;;;;;;1.67;1.58;;;9.50;92.30;;;;;;5060623;28;20211;-62
2021/04/24 05:12:50;;;;;;;3.42;2.50;;;9.60;92.00;;;;;;5069756;28;20626;-64
2021/04/24 05:15:17;;;;;;;1.48;1.38;;;9.60;92.20;;;;;;5069010;28;20207;-60
2021/04/24 05:17:44;;;;;;;2.00;1.80;;;9.50;92.00;;;;;;5064565;28;20232;-61
2021/04/24 05:20:11;;;;;;;1.75;1.65;;;9.40;92.20;;;;;;5061194;28;20211;-62
2021/04/24 05:22:38;;;;;;;1.88;1.30;;;9.30;92.40;;;;;;5058617;28;20209;-61
2021/04/24 05:25:06;;;;;;;1.20;1.08;;;9.80;92.40;;;;;;5068247;28;20213;-61
2021/04/24 05:27:33;;;;;;;2.38;2.28;;;9.50;92.10;;;;;;5060948;28;20212;-60
2021/04/24 05:29:59;;;;;;;1.65;1.55;;;9.70;91.50;;;;;;5066726;28;20220;-61
2021/04/24 05:32:26;;;;;;;1.10;1.00;;;10.00;91.00;;;;;;5062427;28;20212;-60
2021/04/24 05:34:53;;;;;;;1.85;1.75;;;10.40;90.30;;;;;;5062907;28;20211;-60
2021/04/24 05:37:19;;;;;;;2.55;2.45;;;10.80;88.20;;;;;;5070672;28;20229;-62
2021/04/24 05:39:46;;;;;;;1.75;1.65;;;11.00;88.10;;;;;;5065330;28;20424;-61
2021/04/24 05:42:13;;;;;;;1.38;1.38;;;11.00;87.70;;;;;;5071436;28;20360;-61
2021/04/24 05:44:40;;;;;;;2.63;2.53;;;11.10;87.70;;;;;;5062522;28;20227;-61
2021/04/24 05:47:07;;;;;;;1.60;1.60;;;11.20;87.50;;;;;;5069951;28;20210;-61
2021/04/24 05:49:34;;;;;;;2.08;1.98;;;11.30;86.50;;;;;;5065662;28;20206;-63
2021/04/24 05:52:04;;;;;;;2.47;2.38;;;11.40;85.40;;;;;;5069243;28;20242;-60
2021/04/24 05:54:30;;;;;;;1.65;1.65;;;11.70;86.20;;;;;;5067174;28;20210;-63
2021/04/24 05:56:57;;;;;;;2.22;2.10;;;12.10;83.40;;;;;;5067756;28;20428;-61
2021/04/24 05:59:23;;;;;;;2.58;2.30;;;12.30;82.10;;;;;;5066847;28;20564;-61
2021/04/24 06:01:50;;;;;;;2.67;2.50;;;12.60;81.50;;;;;;5067787;28;20207;-61
2021/04/24 06:04:17;;;;;;;2.85;2.65;;;12.80;80.60;;;;;;5069005;28;20222;-61
2021/04/24 06:06:43;;;;;;;2.20;2.20;;;13.00;78.00;;;;;;5068194;28;20217;-60
2021/04/24 06:09:10;;;;;;;2.60;2.50;;;13.20;76.20;;;;;;5062776;28;20202;-60
2021/04/24 06:11:37;;;;;;;7.18;3.80;;;13.40;75.80;;;;;;5062924;28;20302;-60
2021/04/24 06:14:04;;;;;;;3.22;3.13;;;13.80;75.40;;;;;;5061571;28;20279;-60
2021/04/24 06:16:31;;;;;;;6.18;3.60;;;14.40;70.60;;;;;;5065133;28;20223;-61
2021/04/24 06:18:58;;;;;;;2.90;2.80;;;14.30;69.30;;;;;;5072702;28;20203;-60
2021/04/24 06:21:25;;;;;;;3.38;3.28;;;14.10;70.00;;;;;;5071267;28;20261;-63
2021/04/24 06:23:52;;;;;;;3.10;2.90;;;14.10;69.20;;;;;;5071439;28;20213;-60
2021/04/24 06:26:20;;;;;;;3.55;3.45;;;14.10;69.20;;;;;;5080424;28;20223;-60
2021/04/24 06:28:47;;;;;;;3.55;3.40;;;14.10;69.30;;;;;;5076800;28;20207;-61
2021/04/24 06:31:14;;;;;;;3.88;3.67;;;14.10;67.80;;;;;;5071508;28;20301;-61
2021/04/24 06:33:41;;;;;;;3.80;3.53;;;14.70;66.50;;;;;;5075972;28;20229;-60
2021/04/24 06:36:07;;;;;;;3.30;3.10;;;16.20;59.40;;;;;;5066466;28;20212;-61
2021/04/24 06:38:34;;;;;;;4.10;3.90;;;16.50;57.80;;;;;;5074358;28;20216;-62
2021/04/24 06:41:01;;;;;;;3.38;3.17;;;16.40;57.10;;;;;;5063770;28;20495;-62
2021/04/24 06:43:27;;;;;;;4.03;3.83;;;16.10;56.20;;;;;;5084699;28;20261;-61
2021/04/24 06:45:54;;;;;;;2.67;2.57;;;16.30;57.50;;;;;;5084154;28;20441;-61
2021/04/24 06:48:20;;;;;;;3.07;2.97;;;16.50;56.30;;;;;;5074548;28;20447;-63
2021/04/24 06:50:47;;;;;;;2.80;2.70;;;16.40;53.90;;;;;;5070183;28;20457;-62
2021/04/24 06:53:13;;;;;;;3.97;3.78;;;16.10;55.70;;;;;;5074964;28;20436;-61
2021/04/24 06:55:40;;;;;;;2.70;2.60;;;16.30;55.50;;;;;;5069953;28;20246;-61
2021/04/24 06:58:07;;;;;;;3.27;3.17;;;16.30;56.80;;;;;;5076609;28;20485;-62
2021/04/24 07:00:34;;;;;;;3.30;3.10;;;16.50;54.10;;;;;;5066627;28;20441;-62
2021/04/24 07:03:00;;;;;;;3.33;3.17;;;16.70;55.00;;;;;;5066057;28;20442;-61
2021/04/24 07:05:27;;;;;;;3.87;3.70;;;17.20;53.00;;;;;;5067318;28;20417;-61
2021/04/24 07:07:54;;;;;;;3.10;3.00;;;17.50;51.30;;;;;;5067077;28;20426;-61
2021/04/24 07:10:20;;;;;;;3.30;3.20;;;17.40;50.50;;;;;;5064719;28;20432;-63
2021/04/24 07:12:47;;;;;;;3.17;3.03;;;18.00;50.40;;;;;;5070675;28;20421;-62
2021/04/24 07:15:14;;;;;;;3.43;3.30;;;18.60;48.80;;;;;;5068973;28;20451;-62
2021/04/24 07:17:40;;;;;;;3.83;3.60;;;20.00;45.00;;;;;;5078992;28;20480;-62
2021/04/24 07:20:10;;;;;;;3.40;3.30;;;21.80;40.10;;;;;;5061347;28;20418;-63
2021/04/24 07:22:38;;;;;;;3.87;3.77;;;23.00;37.80;;;;;;5074264;28;20446;-62
2021/04/24 07:25:05;;;;;;;8.83;4.30;;;22.60;38.60;;;;;;5067529;28;20439;-62
2021/04/24 07:27:33;;;;;;;4.07;3.77;;;21.50;38.10;;;;;;5072960;28;20447;-62
2021/04/24 07:30:00;;;;;;;4.00;3.90;;;21.00;39.00;;;;;;5062324;28;20642;-61
2021/04/24 07:32:27;;;;;;;3.93;3.73;;;22.60;37.60;;;;;;5071804;28;20821;-61
2021/04/24 07:34:54;;;;;;;3.70;3.60;;;24.10;34.30;;;;;;5066225;28;20443;-63
2021/04/24 07:37:20;;;;;;;4.00;3.90;;;23.90;34.10;;;;;;5062656;28;20455;-62
2021/04/24 07:39:47;;;;;;;4.50;4.20;;;25.40;32.60;;;;;;5060393;28;20771;-62
2021/04/24 07:42:14;;;;;;;3.87;3.77;;;26.40;30.40;;;;;;5067123;28;20447;-63
2021/04/24 07:44:41;;;;;;;4.20;4.10;;;27.50;29.70;;;;;;5069806;28;20449;-62
2021/04/24 07:47:08;;;;;;;4.77;4.53;;;26.70;28.70;;;;;;5068738;28;20455;-62
2021/04/24 07:49:36;;;;;;;3.97;3.87;;;27.30;28.30;;;;;;5072408;28;20513;-62
2021/04/24 07:52:05;;;;;;;3.87;3.77;;;25.00;27.50;;;;;;5065706;28;20464;-62
2021/04/24 07:54:33;;;;;;;4.03;3.93;;;22.10;32.00;;;;;;5073269;28;20440;-63
2021/04/24 07:57:00;;;;;;;3.80;3.70;;;22.00;32.70;;;;;;5074063;28;20670;-64
2021/04/24 07:59:27;;;;;;;4.33;4.13;;;23.20;31.80;;;;;;5070456;28;20519;-62
2021/04/24 08:01:55;;;;;;;4.20;4.10;;;24.50;29.50;;;;;;5066684;28;20490;-62
2021/04/24 08:04:22;;;;;;;4.43;4.23;;;26.00;29.40;;;;;;5079660;28;20524;-62
2021/04/24 08:06:49;;;;;;;4.40;4.27;;;27.20;26.60;;;;;;5073485;28;20449;-64
2021/04/24 08:09:16;;;;;;;3.90;3.80;;;26.80;25.80;;;;;;5062567;28;20441;-64
2021/04/24 08:11:43;;;;;;;4.33;4.13;;;25.90;27.00;;;;;;5071243;28;20441;-63
2021/04/24 08:14:09;;;;;;;3.90;3.80;;;26.90;26.20;;;;;;5073197;28;20447;-62
2021/04/24 08:16:36;;;;;;;4.33;4.23;;;26.00;26.00;;;;;;5065614;28;20483;-63
2021/04/24 08:19:03;;;;;;;4.70;4.50;;;26.10;27.50;;;;;;5064706;28;20467;-62
2021/04/24 08:21:31;;;;;;;4.30;4.10;;;27.30;26.90;;;;;;5069625;28;20441;-63
2021/04/24 08:24:00;;;;;;;4.30;4.20;;;28.90;24.40;;;;;;5063626;28;20450;-63
2021/04/24 08:26:31;;;;;;;4.90;4.60;;;28.80;24.80;;;;;;5066126;28;20441;-63
2021/04/24 08:28:58;;;;;;;4.73;4.60;;;29.10;23.90;;;;;;5073981;28;20444;-64
2021/04/24 08:31:24;;;;;;;4.50;4.40;;;27.70;25.90;;;;;;5067973;28;20449;-63
2021/04/24 08:33:56;;;;;;;4.30;4.20;;;27.70;25.80;;;;;;5073484;28;20445;-63
2021/04/24 08:36:24;;;;;;;4.60;4.40;;;27.00;25.30;;;;;;5074055;28;20766;-63
2021/04/24 08:38:50;;;;;;;4.53;4.33;;;26.60;25.70;;;;;;5075235;28;20444;-63
2021/04/24 08:41:17;;;;;;;4.30;4.20;;;26.30;26.00;;;;;;5064323;28;20503;-63
2021/04/24 08:43:45;;;;;;;4.00;3.90;;;26.10;25.50;;;;;;5080652;28;20467;-63
2021/04/24 08:46:15;;;;;;;4.00;3.90;;;24.60;27.80;;;;;;5080142;28;20484;-62
2021/04/24 08:48:42;;;;;;;4.30;4.20;;;25.00;27.90;;;;;;5072453;28;20497;-63
2021/04/24 08:51:09;;;;;;;4.40;4.30;;;27.50;25.70;;;;;;5069252;28;20618;-62
2021/04/24 08:53:36;;;;;;;5.10;5.00;;;29.20;24.60;;;;;;5078643;28;20473;-63
2021/04/24 08:56:03;;;;;;;5.03;4.93;;;30.60;23.50;;;;;;5077171;28;20439;-62
2021/04/24 08:58:29;;;;;;;4.90;4.80;;;30.50;22.40;;;;;;5078213;28;20496;-63
2021/04/24 09:00:56;;;;;;;6.50;6.10;;;31.40;21.40;;;;;;5072062;28;20496;-63
2021/04/24 09:03:23;;;;;;;4.80;4.70;;;28.80;23.10;;;;;;5081681;28;20432;-63
2021/04/24 09:05:53;;;;;;;5.30;5.00;;;28.80;22.90;;;;;;5077342;28;20436;-63
2021/04/24 09:08:28;;;;;;;4.57;4.47;;;27.20;24.30;;;;;;5068600;28;20453;-64
2021/04/24 09:11:00;;;;;;;4.50;4.40;;;28.20;23.50;;;;;;5073343;28;20441;-63
2021/04/24 09:13:28;;;;;;;4.00;3.90;;;28.40;24.00;;;;;;5080679;28;20444;-63
2021/04/24 09:15:55;;;;;;;4.30;4.20;;;27.60;24.50;;;;;;5077458;28;20449;-63
2021/04/24 09:18:28;;;;;;;4.30;4.20;;;27.30;25.00;;;;;;5069796;28;20483;-64
2021/04/24 09:21:01;;;;;;;5.20;5.00;;;28.10;24.00;;;;;;5073931;28;20439;-64
2021/04/24 09:23:33;;;;;;;4.40;4.20;;;29.10;22.80;;;;;;5069374;28;20444;-64
2021/04/24 09:26:04;;;;;;;4.20;4.10;;;26.30;24.50;;;;;;5066447;28;20442;-63
2021/04/24 09:28:43;;;;;;;4.30;4.10;;;23.50;28.90;;;;;;5065221;28;20422;-63
2021/04/24 09:31:21;;;;;;;4.00;3.90;;;22.10;31.10;;;;;;5076475;28;20429;-63
2021/04/24 09:33:51;;;;;;;4.10;4.00;;;21.00;30.90;;;;;;5073318;28;20436;-63
2021/04/24 09:36:19;;;;;;;4.50;4.30;;;20.20;32.00;;;;;;5073776;28;20432;-62
2021/04/24 09:38:48;;;;;;;4.40;4.20;;;19.50;36.30;;;;;;5077340;28;20415;-65
2021/04/24 09:41:23;;;;;;;4.47;4.20;;;19.10;35.60;;;;;;5068825;28;20771;-63
2021/04/24 09:44:08;;;;;;;3.90;3.80;;;19.20;35.90;;;;;;5070507;28;20438;-64
2021/04/24 09:46:49;;;;;;;4.40;4.10;;;18.90;36.20;;;;;;5074947;28;20433;-62
2021/04/24 09:49:28;;;;;;;4.07;3.87;;;18.20;36.60;;;;;;5072222;28;20603;-63
2021/04/24 09:51:59;;;;;;;3.83;3.73;;;17.70;37.70;;;;;;5073344;28;20442;-63
2021/04/24 09:54:37;;;;;;;3.40;3.30;;;17.60;38.00;;;;;;5068902;28;20417;-63
2021/04/24 09:57:05;;;;;;;3.80;3.70;;;17.70;38.10;;;;;;5076785;28;20525;-65
2021/04/24 09:59:49;;;;;;;3.60;3.50;;;18.10;39.70;;;;;;5081648;28;20473;-64
2021/04/24 10:02:38;;;;;;;4.30;4.10;;;18.20;40.10;;;;;;5070927;28;20523;-64
2021/04/24 10:05:14;;;;;;;3.60;3.50;;;17.90;39.00;;;;;;5075256;28;20557;-63
2021/04/24 10:07:45;;;;;;;3.90;3.80;;;17.90;40.60;;;;;;5074629;28;20428;-63
2021/04/24 10:10:15;;;;;;;3.43;3.33;;;18.00;41.20;;;;;;5077097;28;20420;-65
2021/04/24 10:13:00;;;;;;;3.73;3.63;;;18.60;40.30;;;;;;5080604;28;20911;-64
2021/04/24 10:15:39;;;;;;;3.80;3.70;;;18.80;38.80;;;;;;5083001;28;20443;-63
2021/04/24 10:18:08;;;;;;;3.73;3.63;;;18.70;37.90;;;;;;5080242;28;20490;-64
2021/04/24 10:20:35;;;;;;;4.00;3.90;;;19.00;37.80;;;;;;5077597;28;20406;-64
2021/04/24 10:23:04;;;;;;;3.63;3.53;;;19.30;37.10;;;;;;5075054;28;20791;-63
2021/04/24 10:25:30;;;;;;;3.90;3.70;;;18.80;37.50;;;;;;5088043;28;20417;-64
2021/04/24 10:27:58;;;;;;;3.40;3.30;;;18.40;37.60;;;;;;5075656;28;20424;-64
2021/04/24 10:30:25;;;;;;;3.60;3.50;;;17.50;39.00;;;;;;5063562;28;20445;-65
2021/04/24 10:32:52;;;;;;;3.87;3.77;;;17.40;41.40;;;;;;5077542;28;20455;-63
2021/04/24 10:35:20;;;;;;;3.87;3.77;;;17.40;40.40;;;;;;5071683;28;20439;-64
2021/04/24 10:37:51;;;;;;;3.70;3.60;;;17.20;41.30;;;;;;5065642;28;20472;-63
2021/04/24 10:40:19;;;;;;;4.53;4.33;;;16.70;40.80;;;;;;5065429;28;20448;-62
2021/04/24 10:42:54;;;;;;;3.30;3.20;;;16.60;41.20;;;;;;5070683;28;20442;-63
2021/04/24 10:45:31;;;;;;;3.90;3.80;;;16.90;43.20;;;;;;5069491;28;20446;-67
2021/04/24 10:47:58;;;;;;;3.43;3.33;;;17.30;42.40;;;;;;5073685;28;20957;-68
2021/04/24 10:50:41;;;;;;;3.27;3.17;;;17.50;40.40;;;;;;5068627;28;20503;-68
2021/04/24 10:53:23;;;;;;;3.73;3.63;;;17.40;41.10;;;;;;5055286;28;20419;-65
2021/04/24 10:55:52;;;;;;;3.50;3.40;;;17.00;41.60;;;;;;5074153;28;20446;-66
2021/04/24 10:58:23;;;;;;;4.10;3.90;;;16.70;42.90;;;;;;5075239;28;20450;-65
2021/04/24 11:00:58;;;;;;;3.97;3.87;;;16.70;42.80;;;;;;5073004;28;20794;-64
2021/04/24 11:03:34;;;;;;;3.63;3.53;;;16.80;44.20;;;;;;5074001;28;20492;-64
2021/04/24 11:06:13;;;;;;;4.67;4.47;;;16.80;44.10;;;;;;5075351;28;20412;-64
2021/04/24 11:08:41;;;;;;;3.73;3.60;;;16.70;42.10;;;;;;5077735;28;20432;-63
2021/04/24 11:11:15;;;;;;;3.80;3.70;;;16.50;43.80;;;;;;5063680;28;20454;-65
2021/04/24 11:13:53;;;;;;;3.50;3.40;;;16.70;45.40;;;;;;5076115;28;20762;-63
2021/04/24 11:16:23;;;;;;;3.40;3.30;;;16.90;44.00;;;;;;5078032;28;20406;-64
2021/04/24 11:18:51;;;;;;;3.33;3.23;;;17.70;44.10;;;;;;5079215;28;20497;-64
2021/04/24 11:21:17;;;;;;;3.57;3.47;;;18.50;43.40;;;;;;5065509;28;20456;-63
2021/04/24 11:24:08;;;;;;;3.60;3.50;;;18.90;41.20;;;;;;5070766;28;20427;-63
2021/04/24 11:26:35;;;;;;;3.50;3.40;;;19.20;40.50;;;;;;5075948;28;20439;-63
2021/04/24 11:29:09;;;;;;;3.60;3.50;;;19.00;41.30;;;;;;5077460;28;20650;-64
2021/04/24 11:31:55;;;;;;;3.10;3.00;;;18.90;41.90;;;;;;5069211;28;20419;-63
2021/04/24 11:34:22;;;;;;;3.40;3.30;;;18.70;42.90;;;;;;5083462;28;21221;-63
2021/04/24 11:37:15;;;;;;;3.17;3.07;;;18.40;41.10;;;;;;5065393;28;20422;-63
2021/04/24 11:40:19;;;;;;;3.00;2.90;;;18.00;43.80;;;;;;5064700;28;20419;-63
2021/04/24 11:42:49;;;;;;;3.60;3.40;;;17.80;44.00;;;;;;5071787;28;20675;-63
2021/04/24 11:46:10;;;;;;;3.50;3.40;;;17.60;44.40;;;;;;5078436;28;20438;-65
2021/04/24 11:48:46;;;;;;;3.63;3.47;;;17.90;45.00;;;;;;5031488;28;21586;-63
2021/04/24 11:51:34;;;;;;;3.53;3.33;;;18.20;44.00;;;;;;5057224;28;20527;-63
2021/04/24 11:54:08;;;;;;;3.50;3.40;;;18.30;44.60;;;;;;5066356;28;20443;-64
2021/04/24 11:56:35;;;;;;;3.50;3.30;;;17.90;42.00;;;;;;5061992;28;20516;-64
2021/04/24 11:59:03;;;;;;;4.03;3.83;;;17.40;41.90;;;;;;5076153;28;20454;-64
2021/04/24 12:01:30;;;;;;;4.33;4.13;;;17.10;43.00;;;;;;5069340;28;20449;-64
2021/04/24 12:03:57;;;;;;;4.30;3.90;;;17.00;43.30;;;;;;5069490;28;20426;-64
2021/04/24 12:06:41;;;;;;;3.77;3.57;;;17.00;43.60;;;;;;5080904;28;20426;-64
2021/04/24 12:09:14;;;;;;;3.00;2.90;;;16.80;44.50;;;;;;5070509;28;20445;-64
2021/04/24 12:11:53;;;;;;;3.80;3.60;;;16.50;45.10;;;;;;5083430;28;20468;-64
2021/04/24 12:14:20;;;;;;;3.33;3.23;;;16.40;48.20;;;;;;5071687;28;20523;-64
2021/04/24 12:16:48;;;;;;;3.60;3.50;;;16.50;45.10;;;;;;5077917;28;20455;-64
2021/04/24 12:19:37;;;;;;;3.30;3.20;;;16.50;45.60;;;;;;5075664;28;20441;-64
2021/04/24 12:22:21;;;;;;;3.70;3.50;;;16.40;45.30;;;;;;5064188;28;20520;-64
2021/04/24 12:25:08;;;;;;;4.00;3.70;;;16.30;46.00;;;;;;5077993;28;20452;-65
2021/04/24 12:27:43;;;;;;;3.77;3.67;;;16.30;45.50;;;;;;5072457;28;20434;-63
2021/04/24 12:30:13;;;;;;;3.60;3.40;;;16.50;45.30;;;;;;5065022;28;21015;-64
2021/04/24 12:32:44;;;;;;;3.80;3.60;;;16.70;46.10;;;;;;5076348;28;20449;-64
2021/04/24 12:35:24;;;;;;;4.00;3.80;;;16.60;44.80;;;;;;5072524;28;20611;-64
2021/04/24 12:38:00;;;;;;;3.20;3.10;;;16.70;46.20;;;;;;5071800;28;20471;-63
2021/04/24 12:40:27;;;;;;;3.80;3.60;;;16.40;47.30;;;;;;5070276;28;20798;-62
2021/04/24 12:43:02;;;;;;;3.40;3.30;;;16.40;45.60;;;;;;5067265;28;20460;-64
2021/04/24 12:45:29;;;;;;;3.70;3.60;;;16.10;47.00;;;;;;5077968;28;20417;-63
2021/04/24 12:47:56;;;;;;;3.20;3.00;;;15.70;47.80;;;;;;5074794;28;20427;-63
2021/04/24 12:50:38;;;;;;;3.53;3.43;;;15.60;47.70;;;;;;5067693;28;20507;-64
2021/04/24 12:53:08;;;;;;;3.33;3.23;;;15.90;48.50;;;;;;5070849;28;20488;-68
2021/04/24 12:55:42;;;;;;;3.43;3.23;;;16.10;47.80;;;;;;5081478;28;20422;-64
2021/04/24 12:58:12;;;;;;;3.13;3.00;;;16.10;46.80;;;;;;5081299;28;20485;-63
2021/04/24 13:00:47;;;;;;;3.63;3.43;;;16.10;46.00;;;;;;5063235;28;20893;-63
2021/04/24 13:03:24;;;;;;;3.43;3.33;;;16.30;47.10;;;;;;5069113;28;20420;-64